Evolution — 2FKB6 — position and weather

sailwx.info

Track history (hours):
 
Tides and Currents Weather Stations Pressure Air Temp Water Temp Dewpoint Dewpoint Depression Visibility Wind Speed Wind Dir Waves Ship Positions

Evolution

Last reported at 2015-Jun-29 05:03 UTC. Time now 2015-Jul-02 08:09 UTC.
Position N 16°58' W 062°12'.

Type: Sailing vessel. MMSI: 235091936.

Date/timePositionNaut miles runAvg speedWind from/ knotsBaromVisibWave heightAir tempDewpointWater temp
2015-Jun-29 05:03N 16°58' W 062°12'5 7.3
2015-Jun-29 04:25N 16°54' W 062°09'7 7.7
2015-Jun-29 03:33N 16°48' W 062°06'8 7.7
2015-Jun-29 02:33N 16°41' W 062°02'8 7.8
2015-Jun-29 01:33N 16°34' W 061°59'123 4.4
2015-Jun-27 21:32N 14°40' W 061°11'8 8.1
2015-Jun-27 20:33N 14°33' W 061°07'8 7.2
2015-Jun-27 19:29N 14°27' W 061°02'6 6.0
2015-Jun-27 18:33N 14°26' W 060°57'  
Track history (hours):
 
Tides and Currents Weather Stations Pressure Air Temp Water Temp Dewpoint Dewpoint Depression Visibility Wind Speed Wind Dir Waves Ship Positions

Evolution

Last reported at 2015-Jun-29 05:03 UTC. Time now 2015-Jul-02 08:09 UTC.
Position N 16°58' W 062°12'.

Type: Sailing vessel. MMSI: 235091936.

Date/timePositionNaut miles runAvg speedWind from/ knotsBaromVisibWave heightAir tempDewpointWater temp
2015-Jun-29 05:03N 16°58' W 062°12'5 7.3
2015-Jun-29 04:25N 16°54' W 062°09'7 7.7
2015-Jun-29 03:33N 16°48' W 062°06'8 7.7
2015-Jun-29 02:33N 16°41' W 062°02'8 7.8
2015-Jun-29 01:33N 16°34' W 061°59'123 4.4
2015-Jun-27 21:32N 14°40' W 061°11'8 8.1
2015-Jun-27 20:33N 14°33' W 061°07'8 7.2
2015-Jun-27 19:29N 14°27' W 061°02'6 6.0
2015-Jun-27 18:33N 14°26' W 060°57'  

Dump ship's entire track history